Floretgracht — PBNS — position and weather

sailwx.info

Track history (hours):
 
Tides and Currents Weather Stations Pressure Air Temp Water Temp Dewpoint Dewpoint Depression Visibility Wind Speed Wind Dir Waves Ship Positions

Floretgracht

Last reported at 2018-Jun-11 10:53 UTC. Time now 2018-Jun-19 20:08 UTC.
Position N 46°50' W 071°10'.
Warning: this ship's position is 8 days out of date.

Length 137 m; draft 8 m.

Type: Cargo ship. MMSI: 246614000.

Date/timePositionNaut miles runAvg speedWind from/ knotsBaromVisibWave heightAir tempDewpointWater temp
2018-Jun-11 10:53N 46°50' W 071°10'9113.1
2018-Jun-11 03:55N 46°04' W 073°04'612.6
2018-Jun-11 03:29N 46°01' W 073°10'714.2
2018-Jun-11 03:00N 45°54' W 073°13'714.2
2018-Jun-11 02:30N 45°49' W 073°19'713.9
2018-Jun-11 02:00N 45°43' W 073°26'1410.5
2018-Jun-11 00:42N 45°30' W 073°31'1 1.1
2018-Jun-10 23:48N 45°29' W 073°31'1 3.1
2018-Jun-10 23:30N 45°28' W 073°30'2 3.2
2018-Jun-10 23:00N 45°27' W 073°30'2 4.8
2018-Jun-10 22:31N 45°25' W 073°32'2 2.4
2018-Jun-10 21:40N 45°24' W 073°34'0 2.6
2018-Jun-10 21:30N 45°24' W 073°35'2 3.2
2018-Jun-10 21:00N 45°24' W 073°37'3 5.8
2018-Jun-10 20:30N 45°25' W 073°41'3 5.1
2018-Jun-10 20:00N 45°24' W 073°45'5 8.9
2018-Jun-10 19:30N 45°22' W 073°50'4 8.9
2018-Jun-10 19:00N 45°19' W 073°55'0 0.5
2018-Jun-10 18:26N 45°19' W 073°55'0 0.0
2018-Jun-10 17:56N 45°19' W 073°55'1 1.1
2018-Jun-10 17:14N 45°18' W 073°56'0 0.1
2018-Jun-10 16:56N 45°18' W 073°56'1 1.4
2018-Jun-10 16:30N 45°18' W 073°56'2 4.3
2018-Jun-10 16:00N 45°16' W 073°57'3 5.6
2018-Jun-10 15:30N 45°14' W 074°00'2 0.3
2018-Jun-10 08:39N 45°13' W 074°03'1 9.2
2018-Jun-10 08:30N 45°14' W 074°01'5 6.9
2018-Jun-10 07:45N 45°14' W 074°08'312.1
2018-Jun-10 07:28N 45°14' W 074°13'  
2018-Jun-03 03:27N 45°25' W 083°20'815.4
2018-Jun-03 02:55N 45°29' W 083°30'615.1
2018-Jun-03 02:30N 45°31' W 083°38'815.2
2018-Jun-03 02:00N 45°34' W 083°48'1915.0
2018-Jun-03 00:43N 45°43' W 084°13'314.3
2018-Jun-03 00:28N 45°42' W 084°18'714.3
2018-Jun-02 23:58N 45°42' W 084°28'714.7
2018-Jun-02 23:31N 45°46' W 084°36'714.3
2018-Jun-02 23:00N 45°49' W 084°46'714.7
2018-Jun-02 22:30N 45°49' W 084°56'714.4
2018-Jun-02 22:00N 45°50' W 085°06'713.6
2018-Jun-02 21:30N 45°44' W 085°11'815.3
2018-Jun-02 21:00N 45°38' W 085°18'815.1
2018-Jun-02 20:30N 45°32' W 085°24'715.0
2018-Jun-02 20:00N 45°25' W 085°31'714.9
2018-Jun-02 19:30N 45°19' W 085°37'714.8
2018-Jun-02 19:00N 45°13' W 085°43'814.9
2018-Jun-02 18:30N 45°07' W 085°49'  
Track history (hours):
 
Tides and Currents Weather Stations Pressure Air Temp Water Temp Dewpoint Dewpoint Depression Visibility Wind Speed Wind Dir Waves Ship Positions

Floretgracht

Last reported at 2018-Jun-11 10:53 UTC. Time now 2018-Jun-19 20:08 UTC.
Position N 46°50' W 071°10'.
Warning: this ship's position is 8 days out of date.

Length 137 m; draft 8 m.

Type: Cargo ship. MMSI: 246614000.

Date/timePositionNaut miles runAvg speedWind from/ knotsBaromVisibWave heightAir tempDewpointWater temp
2018-Jun-11 10:53N 46°50' W 071°10'9113.1
2018-Jun-11 03:55N 46°04' W 073°04'612.6
2018-Jun-11 03:29N 46°01' W 073°10'714.2
2018-Jun-11 03:00N 45°54' W 073°13'714.2
2018-Jun-11 02:30N 45°49' W 073°19'713.9
2018-Jun-11 02:00N 45°43' W 073°26'1410.5
2018-Jun-11 00:42N 45°30' W 073°31'1 1.1
2018-Jun-10 23:48N 45°29' W 073°31'1 3.1
2018-Jun-10 23:30N 45°28' W 073°30'2 3.2
2018-Jun-10 23:00N 45°27' W 073°30'2 4.8
2018-Jun-10 22:31N 45°25' W 073°32'2 2.4
2018-Jun-10 21:40N 45°24' W 073°34'0 2.6
2018-Jun-10 21:30N 45°24' W 073°35'2 3.2
2018-Jun-10 21:00N 45°24' W 073°37'3 5.8
2018-Jun-10 20:30N 45°25' W 073°41'3 5.1
2018-Jun-10 20:00N 45°24' W 073°45'5 8.9
2018-Jun-10 19:30N 45°22' W 073°50'4 8.9
2018-Jun-10 19:00N 45°19' W 073°55'0 0.5
2018-Jun-10 18:26N 45°19' W 073°55'0 0.0
2018-Jun-10 17:56N 45°19' W 073°55'1 1.1
2018-Jun-10 17:14N 45°18' W 073°56'0 0.1
2018-Jun-10 16:56N 45°18' W 073°56'1 1.4
2018-Jun-10 16:30N 45°18' W 073°56'2 4.3
2018-Jun-10 16:00N 45°16' W 073°57'3 5.6
2018-Jun-10 15:30N 45°14' W 074°00'2 0.3
2018-Jun-10 08:39N 45°13' W 074°03'1 9.2
2018-Jun-10 08:30N 45°14' W 074°01'5 6.9
2018-Jun-10 07:45N 45°14' W 074°08'312.1
2018-Jun-10 07:28N 45°14' W 074°13'  
2018-Jun-03 03:27N 45°25' W 083°20'815.4
2018-Jun-03 02:55N 45°29' W 083°30'615.1
2018-Jun-03 02:30N 45°31' W 083°38'815.2
2018-Jun-03 02:00N 45°34' W 083°48'1915.0
2018-Jun-03 00:43N 45°43' W 084°13'314.3
2018-Jun-03 00:28N 45°42' W 084°18'714.3
2018-Jun-02 23:58N 45°42' W 084°28'714.7
2018-Jun-02 23:31N 45°46' W 084°36'714.3
2018-Jun-02 23:00N 45°49' W 084°46'714.7
2018-Jun-02 22:30N 45°49' W 084°56'714.4
2018-Jun-02 22:00N 45°50' W 085°06'713.6
2018-Jun-02 21:30N 45°44' W 085°11'815.3
2018-Jun-02 21:00N 45°38' W 085°18'815.1
2018-Jun-02 20:30N 45°32' W 085°24'715.0
2018-Jun-02 20:00N 45°25' W 085°31'714.9
2018-Jun-02 19:30N 45°19' W 085°37'714.8
2018-Jun-02 19:00N 45°13' W 085°43'814.9
2018-Jun-02 18:30N 45°07' W 085°49'  

Dump ship's entire track history